sensor_id;sensor_type;location;lat;lon;timestamp;P1;durP1;ratioP1;P2;durP2;ratioP2
13267;SDS011;6702;47.068;15.458;2022-07-25T00:00:59;15.63;;;14.33;;
13267;SDS011;6702;47.068;15.458;2022-07-25T00:04:02;15.33;;;14.13;;
13267;SDS011;6702;47.068;15.458;2022-07-25T00:07:12;14.67;;;13.43;;
13267;SDS011;6702;47.068;15.458;2022-07-25T00:10:15;15.40;;;14.00;;
13267;SDS011;6702;47.068;15.458;2022-07-25T00:13:20;16.03;;;14.60;;
13267;SDS011;6702;47.068;15.458;2022-07-25T00:16:23;16.07;;;14.77;;
13267;SDS011;6702;47.068;15.458;2022-07-25T00:19:26;14.27;;;13.17;;
13267;SDS011;6702;47.068;15.458;2022-07-25T00:22:29;15.00;;;13.77;;
13267;SDS011;6702;47.068;15.458;2022-07-25T00:25:32;15.00;;;13.80;;
13267;SDS011;6702;47.068;15.458;2022-07-25T00:28:37;14.53;;;13.43;;
13267;SDS011;6702;47.068;15.458;2022-07-25T00:31:40;15.70;;;14.43;;
13267;SDS011;6702;47.068;15.458;2022-07-25T00:34:43;15.17;;;13.97;;
13267;SDS011;6702;47.068;15.458;2022-07-25T00:37:46;14.00;;;13.00;;
13267;SDS011;6702;47.068;15.458;2022-07-25T00:40:49;15.53;;;14.33;;
13267;SDS011;6702;47.068;15.458;2022-07-25T00:43:57;15.80;;;14.40;;
13267;SDS011;6702;47.068;15.458;2022-07-25T00:47:00;14.40;;;13.30;;
13267;SDS011;6702;47.068;15.458;2022-07-25T00:50:03;16.40;;;14.90;;
13267;SDS011;6702;47.068;15.458;2022-07-25T00:53:08;15.80;;;14.40;;
13267;SDS011;6702;47.068;15.458;2022-07-25T00:56:11;15.63;;;14.40;;
13267;SDS011;6702;47.068;15.458;2022-07-25T00:59:16;14.57;;;13.37;;
13267;SDS011;6702;47.068;15.458;2022-07-25T01:02:19;15.67;;;13.90;;
13267;SDS011;6702;47.068;15.458;2022-07-25T01:05:22;16.40;;;14.70;;
13267;SDS011;6702;47.068;15.458;2022-07-25T01:08:25;14.27;;;13.17;;
13267;SDS011;6702;47.068;15.458;2022-07-25T01:11:29;15.30;;;14.13;;
13267;SDS011;6702;47.068;15.458;2022-07-25T01:14:33;15.37;;;14.07;;
13267;SDS011;6702;47.068;15.458;2022-07-25T01:17:37;16.00;;;14.60;;
13267;SDS011;6702;47.068;15.458;2022-07-25T01:20:41;15.20;;;13.87;;
13267;SDS011;6702;47.068;15.458;2022-07-25T01:23:44;15.40;;;14.27;;
13267;SDS011;6702;47.068;15.458;2022-07-25T01:26:48;15.47;;;14.23;;
13267;SDS011;6702;47.068;15.458;2022-07-25T01:29:51;15.73;;;14.03;;
13267;SDS011;6702;47.068;15.458;2022-07-25T01:32:54;15.20;;;14.00;;
13267;SDS011;6702;47.068;15.458;2022-07-25T01:35:58;15.90;;;14.53;;
13267;SDS011;6702;47.068;15.458;2022-07-25T01:39:02;16.30;;;15.10;;
13267;SDS011;6702;47.068;15.458;2022-07-25T01:42:05;17.13;;;15.57;;
13267;SDS011;6702;47.068;15.458;2022-07-25T01:45:09;16.27;;;14.87;;
13267;SDS011;6702;47.068;15.458;2022-07-25T01:48:13;15.73;;;14.43;;
13267;SDS011;6702;47.068;15.458;2022-07-25T01:51:18;15.13;;;13.77;;
13267;SDS011;6702;47.068;15.458;2022-07-25T01:54:21;15.37;;;14.17;;
13267;SDS011;6702;47.068;15.458;2022-07-25T01:57:25;15.50;;;14.20;;
13267;SDS011;6702;47.068;15.458;2022-07-25T02:00:31;15.40;;;14.20;;
13267;SDS011;6702;47.068;15.458;2022-07-25T02:03:34;16.03;;;14.73;;
13267;SDS011;6702;47.068;15.458;2022-07-25T02:06:38;16.13;;;14.57;;
13267;SDS011;6702;47.068;15.458;2022-07-25T02:09:42;15.40;;;14.20;;
13267;SDS011;6702;47.068;15.458;2022-07-25T02:12:45;14.47;;;13.30;;
13267;SDS011;6702;47.068;15.458;2022-07-25T02:15:49;15.50;;;14.20;;
13267;SDS011;6702;47.068;15.458;2022-07-25T02:18:52;16.17;;;14.77;;
13267;SDS011;6702;47.068;15.458;2022-07-25T02:21:56;17.00;;;15.60;;
13267;SDS011;6702;47.068;15.458;2022-07-25T02:24:59;16.13;;;14.83;;
13267;SDS011;6702;47.068;15.458;2022-07-25T02:28:03;15.07;;;13.77;;
13267;SDS011;6702;47.068;15.458;2022-07-25T02:31:06;16.50;;;15.20;;
13267;SDS011;6702;47.068;15.458;2022-07-25T02:34:10;16.60;;;15.20;;
13267;SDS011;6702;47.068;15.458;2022-07-25T02:37:15;15.47;;;14.37;;
13267;SDS011;6702;47.068;15.458;2022-07-25T02:40:18;15.00;;;13.80;;
13267;SDS011;6702;47.068;15.458;2022-07-25T02:43:21;16.00;;;14.60;;
13267;SDS011;6702;47.068;15.458;2022-07-25T02:46:24;15.80;;;14.60;;
13267;SDS011;6702;47.068;15.458;2022-07-25T02:49:27;14.60;;;13.43;;
13267;SDS011;6702;47.068;15.458;2022-07-25T02:52:32;14.80;;;13.60;;
13267;SDS011;6702;47.068;15.458;2022-07-25T02:55:35;16.03;;;14.83;;
13267;SDS011;6702;47.068;15.458;2022-07-25T02:58:38;16.47;;;15.00;;
13267;SDS011;6702;47.068;15.458;2022-07-25T03:01:42;15.73;;;14.53;;
13267;SDS011;6702;47.068;15.458;2022-07-25T03:04:45;14.70;;;13.57;;
13267;SDS011;6702;47.068;15.458;2022-07-25T03:07:49;14.73;;;13.40;;
13267;SDS011;6702;47.068;15.458;2022-07-25T03:10:52;15.60;;;14.30;;
13267;SDS011;6702;47.068;15.458;2022-07-25T03:13:56;15.60;;;14.20;;
13267;SDS011;6702;47.068;15.458;2022-07-25T03:16:59;16.20;;;14.80;;
13267;SDS011;6702;47.068;15.458;2022-07-25T03:20:02;14.80;;;13.50;;
13267;SDS011;6702;47.068;15.458;2022-07-25T03:23:08;14.83;;;13.60;;
13267;SDS011;6702;47.068;15.458;2022-07-25T03:26:11;14.90;;;13.70;;
13267;SDS011;6702;47.068;15.458;2022-07-25T03:29:14;14.47;;;13.23;;
13267;SDS011;6702;47.068;15.458;2022-07-25T03:32:17;14.83;;;13.53;;
13267;SDS011;6702;47.068;15.458;2022-07-25T03:35:21;13.97;;;12.67;;
13267;SDS011;6702;47.068;15.458;2022-07-25T03:38:25;14.87;;;13.47;;
13267;SDS011;6702;47.068;15.458;2022-07-25T03:41:29;15.70;;;14.20;;
13267;SDS011;6702;47.068;15.458;2022-07-25T03:44:33;15.83;;;14.40;;
13267;SDS011;6702;47.068;15.458;2022-07-25T03:47:38;15.73;;;14.53;;
13267;SDS011;6702;47.068;15.458;2022-07-25T03:50:41;13.57;;;12.47;;
13267;SDS011;6702;47.068;15.458;2022-07-25T03:53:45;16.83;;;15.40;;
13267;SDS011;6702;47.068;15.458;2022-07-25T03:57:04;15.30;;;14.10;;
13267;SDS011;6702;47.068;15.458;2022-07-25T04:00:08;15.70;;;14.33;;
13267;SDS011;6702;47.068;15.458;2022-07-25T04:03:12;15.10;;;13.87;;
13267;SDS011;6702;47.068;15.458;2022-07-25T04:06:16;14.07;;;12.97;;
13267;SDS011;6702;47.068;15.458;2022-07-25T04:09:20;16.07;;;14.67;;
13267;SDS011;6702;47.068;15.458;2022-07-25T04:12:23;15.50;;;14.20;;
13267;SDS011;6702;47.068;15.458;2022-07-25T04:15:26;15.50;;;14.30;;
13267;SDS011;6702;47.068;15.458;2022-07-25T04:18:31;15.70;;;14.33;;
13267;SDS011;6702;47.068;15.458;2022-07-25T04:21:34;15.03;;;13.73;;
13267;SDS011;6702;47.068;15.458;2022-07-25T04:24:39;15.20;;;13.90;;
13267;SDS011;6702;47.068;15.458;2022-07-25T04:27:42;15.23;;;13.93;;
13267;SDS011;6702;47.068;15.458;2022-07-25T04:30:45;16.33;;;15.07;;
13267;SDS011;6702;47.068;15.458;2022-07-25T04:33:48;14.33;;;13.30;;
13267;SDS011;6702;47.068;15.458;2022-07-25T04:36:51;16.20;;;14.90;;
13267;SDS011;6702;47.068;15.458;2022-07-25T04:39:56;14.77;;;13.57;;
13267;SDS011;6702;47.068;15.458;2022-07-25T04:42:59;14.60;;;13.40;;
13267;SDS011;6702;47.068;15.458;2022-07-25T04:46:02;16.63;;;14.37;;
13267;SDS011;6702;47.068;15.458;2022-07-25T04:49:05;14.07;;;12.93;;
13267;SDS011;6702;47.068;15.458;2022-07-25T04:52:09;14.17;;;13.07;;
13267;SDS011;6702;47.068;15.458;2022-07-25T04:55:13;15.17;;;13.90;;
13267;SDS011;6702;47.068;15.458;2022-07-25T04:58:16;14.80;;;13.40;;
13267;SDS011;6702;47.068;15.458;2022-07-25T05:01:19;14.00;;;12.80;;
13267;SDS011;6702;47.068;15.458;2022-07-25T05:04:23;15.37;;;14.17;;
13267;SDS011;6702;47.068;15.458;2022-07-25T05:07:26;16.07;;;14.67;;
13267;SDS011;6702;47.068;15.458;2022-07-25T05:10:31;13.97;;;12.83;;
13267;SDS011;6702;47.068;15.458;2022-07-25T05:13:34;13.60;;;12.60;;
13267;SDS011;6702;47.068;15.458;2022-07-25T05:16:37;14.47;;;13.37;;
13267;SDS011;6702;47.068;15.458;2022-07-25T05:19:40;14.50;;;13.30;;
13267;SDS011;6702;47.068;15.458;2022-07-25T05:22:43;13.73;;;12.53;;
13267;SDS011;6702;47.068;15.458;2022-07-25T05:25:48;13.73;;;12.53;;
13267;SDS011;6702;47.068;15.458;2022-07-25T05:28:51;15.00;;;13.73;;
13267;SDS011;6702;47.068;15.458;2022-07-25T05:31:54;14.43;;;13.17;;
13267;SDS011;6702;47.068;15.458;2022-07-25T05:34:57;14.87;;;13.57;;
13267;SDS011;6702;47.068;15.458;2022-07-25T05:38:00;15.10;;;13.87;;
13267;SDS011;6702;47.068;15.458;2022-07-25T05:41:05;14.93;;;13.53;;
13267;SDS011;6702;47.068;15.458;2022-07-25T05:44:08;14.27;;;12.97;;
13267;SDS011;6702;47.068;15.458;2022-07-25T05:47:12;16.13;;;14.70;;
13267;SDS011;6702;47.068;15.458;2022-07-25T05:50:16;16.23;;;14.60;;
13267;SDS011;6702;47.068;15.458;2022-07-25T05:53:19;15.70;;;14.40;;
13267;SDS011;6702;47.068;15.458;2022-07-25T05:56:23;15.53;;;14.23;;
13267;SDS011;6702;47.068;15.458;2022-07-25T05:59:26;15.07;;;13.77;;
13267;SDS011;6702;47.068;15.458;2022-07-25T06:02:30;15.03;;;13.67;;
13267;SDS011;6702;47.068;15.458;2022-07-25T06:05:33;15.03;;;13.83;;
13267;SDS011;6702;47.068;15.458;2022-07-25T06:08:37;14.30;;;13.10;;
13267;SDS011;6702;47.068;15.458;2022-07-25T06:11:42;15.07;;;13.83;;
13267;SDS011;6702;47.068;15.458;2022-07-25T06:15:00;15.70;;;14.50;;
13267;SDS011;6702;47.068;15.458;2022-07-25T06:18:04;14.20;;;13.10;;
13267;SDS011;6702;47.068;15.458;2022-07-25T06:21:07;13.37;;;12.37;;
13267;SDS011;6702;47.068;15.458;2022-07-25T06:24:10;13.53;;;12.53;;
13267;SDS011;6702;47.068;15.458;2022-07-25T06:27:14;14.40;;;13.40;;
13267;SDS011;6702;47.068;15.458;2022-07-25T06:30:22;14.53;;;13.13;;
13267;SDS011;6702;47.068;15.458;2022-07-25T06:33:25;14.05;;;12.85;;
13267;SDS011;6702;47.068;15.458;2022-07-25T06:36:28;14.23;;;13.13;;
13267;SDS011;6702;47.068;15.458;2022-07-25T06:39:33;13.63;;;12.52;;
13267;SDS011;6702;47.068;15.458;2022-07-25T06:42:38;14.07;;;12.95;;
13267;SDS011;6702;47.068;15.458;2022-07-25T06:45:42;12.98;;;12.07;;
13267;SDS011;6702;47.068;15.458;2022-07-25T06:48:47;12.98;;;11.88;;
13267;SDS011;6702;47.068;15.458;2022-07-25T06:51:51;13.27;;;12.30;;
13267;SDS011;6702;47.068;15.458;2022-07-25T06:54:54;13.48;;;12.50;;
13267;SDS011;6702;47.068;15.458;2022-07-25T06:57:59;12.95;;;11.98;;
13267;SDS011;6702;47.068;15.458;2022-07-25T07:01:02;13.77;;;12.55;;
13267;SDS011;6702;47.068;15.458;2022-07-25T07:04:05;12.50;;;11.70;;
13267;SDS011;6702;47.068;15.458;2022-07-25T07:07:09;12.90;;;12.05;;
13267;SDS011;6702;47.068;15.458;2022-07-25T07:10:12;13.27;;;12.27;;
13267;SDS011;6702;47.068;15.458;2022-07-25T07:13:17;13.93;;;12.88;;
13267;SDS011;6702;47.068;15.458;2022-07-25T07:16:24;12.68;;;11.73;;
13267;SDS011;6702;47.068;15.458;2022-07-25T07:19:28;13.32;;;12.32;;
13267;SDS011;6702;47.068;15.458;2022-07-25T07:22:41;12.25;;;11.45;;
13267;SDS011;6702;47.068;15.458;2022-07-25T07:25:45;13.45;;;12.48;;
13267;SDS011;6702;47.068;15.458;2022-07-25T07:28:50;12.13;;;11.23;;
13267;SDS011;6702;47.068;15.458;2022-07-25T07:31:54;12.85;;;12.05;;
13267;SDS011;6702;47.068;15.458;2022-07-25T07:34:58;13.57;;;12.57;;
13267;SDS011;6702;47.068;15.458;2022-07-25T07:38:01;12.95;;;12.05;;
13267;SDS011;6702;47.068;15.458;2022-07-25T07:41:04;13.60;;;12.27;;
13267;SDS011;6702;47.068;15.458;2022-07-25T07:44:08;11.73;;;10.82;;
13267;SDS011;6702;47.068;15.458;2022-07-25T07:47:12;13.75;;;12.85;;
13267;SDS011;6702;47.068;15.458;2022-07-25T07:50:15;12.48;;;11.68;;
13267;SDS011;6702;47.068;15.458;2022-07-25T07:53:20;12.80;;;12.00;;
13267;SDS011;6702;47.068;15.458;2022-07-25T07:56:23;12.63;;;11.82;;
13267;SDS011;6702;47.068;15.458;2022-07-25T07:59:27;13.02;;;11.90;;
13267;SDS011;6702;47.068;15.458;2022-07-25T08:02:30;12.63;;;11.82;;
13267;SDS011;6702;47.068;15.458;2022-07-25T08:05:34;12.15;;;11.40;;
13267;SDS011;6702;47.068;15.458;2022-07-25T08:08:38;12.27;;;11.38;;
13267;SDS011;6702;47.068;15.458;2022-07-25T08:11:41;12.95;;;12.15;;
13267;SDS011;6702;47.068;15.458;2022-07-25T08:14:46;13.40;;;12.65;;
13267;SDS011;6702;47.068;15.458;2022-07-25T08:17:49;11.63;;;10.73;;
13267;SDS011;6702;47.068;15.458;2022-07-25T08:20:54;11.13;;;10.43;;
13267;SDS011;6702;47.068;15.458;2022-07-25T08:23:57;13.23;;;12.43;;
13267;SDS011;6702;47.068;15.458;2022-07-25T08:27:00;11.77;;;10.98;;
13267;SDS011;6702;47.068;15.458;2022-07-25T08:30:06;11.75;;;10.98;;
13267;SDS011;6702;47.068;15.458;2022-07-25T08:33:11;11.88;;;11.07;;
13267;SDS011;6702;47.068;15.458;2022-07-25T08:36:16;10.98;;;10.27;;
13267;SDS011;6702;47.068;15.458;2022-07-25T08:39:20;12.98;;;11.80;;
13267;SDS011;6702;47.068;15.458;2022-07-25T08:42:23;11.85;;;11.15;;
13267;SDS011;6702;47.068;15.458;2022-07-25T08:45:27;12.32;;;11.43;;
13267;SDS011;6702;47.068;15.458;2022-07-25T08:48:31;12.00;;;10.93;;
13267;SDS011;6702;47.068;15.458;2022-07-25T08:51:34;11.93;;;11.15;;
13267;SDS011;6702;47.068;15.458;2022-07-25T08:54:38;13.60;;;12.70;;
13267;SDS011;6702;47.068;15.458;2022-07-25T08:57:42;13.13;;;12.30;;
13267;SDS011;6702;47.068;15.458;2022-07-25T09:00:47;12.82;;;11.93;;
13267;SDS011;6702;47.068;15.458;2022-07-25T09:03:50;13.07;;;12.23;;
13267;SDS011;6702;47.068;15.458;2022-07-25T09:06:54;12.60;;;11.52;;
13267;SDS011;6702;47.068;15.458;2022-07-25T09:09:57;12.57;;;11.57;;
13267;SDS011;6702;47.068;15.458;2022-07-25T09:13:01;12.63;;;11.73;;
13267;SDS011;6702;47.068;15.458;2022-07-25T09:16:09;13.63;;;12.70;;
13267;SDS011;6702;47.068;15.458;2022-07-25T09:19:15;13.07;;;12.13;;
13267;SDS011;6702;47.068;15.458;2022-07-25T09:22:19;12.80;;;11.93;;
13267;SDS011;6702;47.068;15.458;2022-07-25T09:25:23;13.10;;;12.02;;
13267;SDS011;6702;47.068;15.458;2022-07-25T09:28:30;12.10;;;11.20;;
13267;SDS011;6702;47.068;15.458;2022-07-25T09:31:35;13.13;;;12.10;;
13267;SDS011;6702;47.068;15.458;2022-07-25T09:34:41;13.57;;;12.45;;
13267;SDS011;6702;47.068;15.458;2022-07-25T09:37:46;14.00;;;12.65;;
13267;SDS011;6702;47.068;15.458;2022-07-25T09:40:52;11.98;;;11.18;;
13267;SDS011;6702;47.068;15.458;2022-07-25T09:43:56;12.88;;;11.93;;
13267;SDS011;6702;47.068;15.458;2022-07-25T09:47:10;13.18;;;12.18;;
13267;SDS011;6702;47.068;15.458;2022-07-25T09:50:15;12.30;;;11.48;;
13267;SDS011;6702;47.068;15.458;2022-07-25T09:53:19;12.35;;;11.55;;
13267;SDS011;6702;47.068;15.458;2022-07-25T09:56:22;12.35;;;11.55;;
13267;SDS011;6702;47.068;15.458;2022-07-25T09:59:25;13.68;;;12.68;;
13267;SDS011;6702;47.068;15.458;2022-07-25T10:02:36;12.82;;;11.82;;
13267;SDS011;6702;47.068;15.458;2022-07-25T10:05:58;13.13;;;12.05;;
13267;SDS011;6702;47.068;15.458;2022-07-25T10:09:09;11.80;;;10.75;;
13267;SDS011;6702;47.068;15.458;2022-07-25T10:12:14;13.13;;;12.13;;
13267;SDS011;6702;47.068;15.458;2022-07-25T10:15:21;11.85;;;10.95;;
13267;SDS011;6702;47.068;15.458;2022-07-25T10:18:26;13.10;;;12.05;;
13267;SDS011;6702;47.068;15.458;2022-07-25T10:21:31;13.40;;;12.50;;
13267;SDS011;6702;47.068;15.458;2022-07-25T10:24:34;13.23;;;12.20;;
13267;SDS011;6702;47.068;15.458;2022-07-25T10:27:41;14.05;;;13.05;;
13267;SDS011;6702;47.068;15.458;2022-07-25T10:30:55;13.05;;;12.15;;
13267;SDS011;6702;47.068;15.458;2022-07-25T10:34:01;12.52;;;11.63;;
13267;SDS011;6702;47.068;15.458;2022-07-25T10:37:10;11.50;;;10.50;;
13267;SDS011;6702;47.068;15.458;2022-07-25T10:40:23;12.95;;;12.00;;
13267;SDS011;6702;47.068;15.458;2022-07-25T10:43:27;13.75;;;12.77;;
13267;SDS011;6702;47.068;15.458;2022-07-25T10:46:37;12.25;;;11.45;;
13267;SDS011;6702;47.068;15.458;2022-07-25T10:49:43;13.18;;;12.18;;
13267;SDS011;6702;47.068;15.458;2022-07-25T10:53:08;13.35;;;12.30;;
13267;SDS011;6702;47.068;15.458;2022-07-25T10:56:12;13.00;;;12.10;;
13267;SDS011;6702;47.068;15.458;2022-07-25T10:59:24;13.63;;;12.63;;
13267;SDS011;6702;47.068;15.458;2022-07-25T11:02:28;12.75;;;11.85;;
13267;SDS011;6702;47.068;15.458;2022-07-25T11:05:43;12.52;;;11.63;;
13267;SDS011;6702;47.068;15.458;2022-07-25T11:08:47;13.00;;;12.10;;
13267;SDS011;6702;47.068;15.458;2022-07-25T11:11:52;13.25;;;12.32;;
13267;SDS011;6702;47.068;15.458;2022-07-25T11:14:58;14.07;;;12.98;;
13267;SDS011;6702;47.068;15.458;2022-07-25T11:18:02;13.30;;;12.35;;
13267;SDS011;6702;47.068;15.458;2022-07-25T11:21:08;13.68;;;12.57;;
13267;SDS011;6702;47.068;15.458;2022-07-25T11:24:11;13.88;;;12.73;;
13267;SDS011;6702;47.068;15.458;2022-07-25T11:27:19;14.02;;;12.95;;
13267;SDS011;6702;47.068;15.458;2022-07-25T11:30:23;13.60;;;12.60;;
13267;SDS011;6702;47.068;15.458;2022-07-25T11:33:29;13.60;;;12.57;;
13267;SDS011;6702;47.068;15.458;2022-07-25T11:36:34;13.40;;;12.50;;
13267;SDS011;6702;47.068;15.458;2022-07-25T11:39:38;13.50;;;12.25;;
13267;SDS011;6702;47.068;15.458;2022-07-25T11:42:42;13.13;;;12.20;;
13267;SDS011;6702;47.068;15.458;2022-07-25T11:45:54;13.95;;;12.88;;
13267;SDS011;6702;47.068;15.458;2022-07-25T11:49:02;14.43;;;13.23;;
13267;SDS011;6702;47.068;15.458;2022-07-25T11:52:18;13.40;;;12.40;;
13267;SDS011;6702;47.068;15.458;2022-07-25T11:55:26;13.55;;;12.65;;
13267;SDS011;6702;47.068;15.458;2022-07-25T11:58:30;13.45;;;12.35;;
13267;SDS011;6702;47.068;15.458;2022-07-25T12:01:34;13.55;;;12.55;;
13267;SDS011;6702;47.068;15.458;2022-07-25T12:04:38;13.13;;;12.23;;
13267;SDS011;6702;47.068;15.458;2022-07-25T12:07:43;13.68;;;12.43;;
13267;SDS011;6702;47.068;15.458;2022-07-25T12:10:48;13.20;;;12.40;;
13267;SDS011;6702;47.068;15.458;2022-07-25T12:14:01;12.48;;;11.50;;
13267;SDS011;6702;47.068;15.458;2022-07-25T12:17:05;12.80;;;11.98;;
13267;SDS011;6702;47.068;15.458;2022-07-25T12:20:12;13.75;;;12.73;;
13267;SDS011;6702;47.068;15.458;2022-07-25T12:23:18;12.77;;;11.82;;
13267;SDS011;6702;47.068;15.458;2022-07-25T12:26:22;12.70;;;11.70;;
13267;SDS011;6702;47.068;15.458;2022-07-25T12:29:25;13.70;;;12.65;;
13267;SDS011;6702;47.068;15.458;2022-07-25T12:32:28;12.73;;;11.93;;
13267;SDS011;6702;47.068;15.458;2022-07-25T12:35:31;12.95;;;11.95;;
13267;SDS011;6702;47.068;15.458;2022-07-25T12:38:38;13.30;;;12.40;;
13267;SDS011;6702;47.068;15.458;2022-07-25T12:41:42;12.48;;;11.48;;
13267;SDS011;6702;47.068;15.458;2022-07-25T12:44:45;13.18;;;12.27;;
13267;SDS011;6702;47.068;15.458;2022-07-25T12:47:49;13.38;;;12.48;;
13267;SDS011;6702;47.068;15.458;2022-07-25T12:50:52;13.18;;;12.23;;
13267;SDS011;6702;47.068;15.458;2022-07-25T12:53:56;12.35;;;11.45;;
13267;SDS011;6702;47.068;15.458;2022-07-25T12:57:00;12.68;;;11.73;;
13267;SDS011;6702;47.068;15.458;2022-07-25T13:00:04;12.88;;;11.77;;
13267;SDS011;6702;47.068;15.458;2022-07-25T13:03:09;13.77;;;12.77;;
13267;SDS011;6702;47.068;15.458;2022-07-25T13:06:12;13.45;;;12.40;;
13267;SDS011;6702;47.068;15.458;2022-07-25T13:09:17;12.40;;;11.32;;
13267;SDS011;6702;47.068;15.458;2022-07-25T13:12:20;12.10;;;11.30;;
13267;SDS011;6702;47.068;15.458;2022-07-25T13:15:24;12.70;;;11.70;;
13267;SDS011;6702;47.068;15.458;2022-07-25T13:18:28;12.77;;;11.88;;
13267;SDS011;6702;47.068;15.458;2022-07-25T13:21:31;12.23;;;11.32;;
13267;SDS011;6702;47.068;15.458;2022-07-25T13:24:36;13.23;;;12.00;;
13267;SDS011;6702;47.068;15.458;2022-07-25T13:27:39;12.80;;;11.60;;
13267;SDS011;6702;47.068;15.458;2022-07-25T13:30:42;12.55;;;11.75;;
13267;SDS011;6702;47.068;15.458;2022-07-25T13:33:47;12.50;;;11.57;;
13267;SDS011;6702;47.068;15.458;2022-07-25T13:36:50;11.63;;;10.63;;
13267;SDS011;6702;47.068;15.458;2022-07-25T13:39:55;12.27;;;11.48;;
13267;SDS011;6702;47.068;15.458;2022-07-25T13:42:58;12.30;;;11.40;;
13267;SDS011;6702;47.068;15.458;2022-07-25T13:46:01;12.50;;;11.60;;
13267;SDS011;6702;47.068;15.458;2022-07-25T13:49:05;12.52;;;11.57;;
13267;SDS011;6702;47.068;15.458;2022-07-25T13:52:09;11.90;;;10.68;;
13267;SDS011;6702;47.068;15.458;2022-07-25T13:55:13;13.25;;;12.00;;
13267;SDS011;6702;47.068;15.458;2022-07-25T13:58:16;12.48;;;11.35;;
13267;SDS011;6702;47.068;15.458;2022-07-25T14:01:19;11.45;;;10.65;;
13267;SDS011;6702;47.068;15.458;2022-07-25T14:04:23;12.43;;;11.63;;
13267;SDS011;6702;47.068;15.458;2022-07-25T14:07:26;12.25;;;11.15;;
13267;SDS011;6702;47.068;15.458;2022-07-25T14:10:30;12.07;;;11.27;;
13267;SDS011;6702;47.068;15.458;2022-07-25T14:13:34;11.85;;;11.05;;
13267;SDS011;6702;47.068;15.458;2022-07-25T14:16:37;14.23;;;13.23;;
13267;SDS011;6702;47.068;15.458;2022-07-25T14:19:40;12.50;;;11.60;;
13267;SDS011;6702;47.068;15.458;2022-07-25T14:22:43;12.68;;;11.68;;
13267;SDS011;6702;47.068;15.458;2022-07-25T14:25:48;12.05;;;11.10;;
13267;SDS011;6702;47.068;15.458;2022-07-25T14:28:51;12.27;;;11.40;;
13267;SDS011;6702;47.068;15.458;2022-07-25T14:31:54;11.27;;;10.50;;
13267;SDS011;6702;47.068;15.458;2022-07-25T14:34:57;11.65;;;10.80;;
13267;SDS011;6702;47.068;15.458;2022-07-25T14:38:02;12.73;;;11.82;;
13267;SDS011;6702;47.068;15.458;2022-07-25T14:41:08;12.43;;;11.45;;
13267;SDS011;6702;47.068;15.458;2022-07-25T14:44:13;12.38;;;11.48;;
13267;SDS011;6702;47.068;15.458;2022-07-25T14:47:16;11.15;;;10.23;;
13267;SDS011;6702;47.068;15.458;2022-07-25T14:50:20;11.15;;;10.30;;
13267;SDS011;6702;47.068;15.458;2022-07-25T14:53:24;12.70;;;11.77;;
13267;SDS011;6702;47.068;15.458;2022-07-25T14:56:28;11.68;;;10.88;;
13267;SDS011;6702;47.068;15.458;2022-07-25T14:59:31;11.52;;;10.65;;
13267;SDS011;6702;47.068;15.458;2022-07-25T15:02:35;12.57;;;11.50;;
13267;SDS011;6702;47.068;15.458;2022-07-25T15:05:38;11.85;;;10.90;;
13267;SDS011;6702;47.068;15.458;2022-07-25T15:08:43;12.55;;;11.65;;
13267;SDS011;6702;47.068;15.458;2022-07-25T15:11:47;11.88;;;11.07;;
13267;SDS011;6702;47.068;15.458;2022-07-25T15:14:51;12.05;;;11.15;;
13267;SDS011;6702;47.068;15.458;2022-07-25T15:17:54;12.30;;;11.50;;
13267;SDS011;6702;47.068;15.458;2022-07-25T15:20:57;11.77;;;10.88;;
13267;SDS011;6702;47.068;15.458;2022-07-25T15:24:00;11.90;;;11.05;;
13267;SDS011;6702;47.068;15.458;2022-07-25T15:27:05;11.50;;;10.70;;
13267;SDS011;6702;47.068;15.458;2022-07-25T15:30:09;12.27;;;11.38;;
13267;SDS011;6702;47.068;15.458;2022-07-25T15:33:14;11.80;;;11.00;;
13267;SDS011;6702;47.068;15.458;2022-07-25T15:36:18;12.10;;;11.07;;
13267;SDS011;6702;47.068;15.458;2022-07-25T15:39:27;12.38;;;11.35;;
13267;SDS011;6702;47.068;15.458;2022-07-25T15:42:32;10.45;;;9.63;;
13267;SDS011;6702;47.068;15.458;2022-07-25T15:45:35;11.80;;;10.90;;
13267;SDS011;6702;47.068;15.458;2022-07-25T15:48:40;12.20;;;11.38;;
13267;SDS011;6702;47.068;15.458;2022-07-25T15:51:45;12.98;;;12.07;;
13267;SDS011;6702;47.068;15.458;2022-07-25T15:54:48;12.93;;;12.02;;
13267;SDS011;6702;47.068;15.458;2022-07-25T15:57:52;11.23;;;10.45;;
13267;SDS011;6702;47.068;15.458;2022-07-25T16:00:55;11.90;;;11.07;;
13267;SDS011;6702;47.068;15.458;2022-07-25T16:03:59;12.50;;;11.70;;
13267;SDS011;6702;47.068;15.458;2022-07-25T16:07:02;11.80;;;11.00;;
13267;SDS011;6702;47.068;15.458;2022-07-25T16:10:05;12.40;;;11.48;;
13267;SDS011;6702;47.068;15.458;2022-07-25T16:13:11;11.52;;;10.63;;
13267;SDS011;6702;47.068;15.458;2022-07-25T16:16:14;10.95;;;10.23;;
13267;SDS011;6702;47.068;15.458;2022-07-25T16:19:17;12.35;;;11.45;;
13267;SDS011;6702;47.068;15.458;2022-07-25T16:22:20;10.77;;;10.07;;
13267;SDS011;6702;47.068;15.458;2022-07-25T16:25:24;12.05;;;11.15;;
13267;SDS011;6702;47.068;15.458;2022-07-25T16:28:30;10.80;;;9.93;;
13267;SDS011;6702;47.068;15.458;2022-07-25T16:31:33;11.80;;;10.90;;
13267;SDS011;6702;47.068;15.458;2022-07-25T16:34:37;11.57;;;10.77;;
13267;SDS011;6702;47.068;15.458;2022-07-25T16:37:40;11.18;;;10.38;;
13267;SDS011;6702;47.068;15.458;2022-07-25T16:40:43;12.30;;;11.18;;
13267;SDS011;6702;47.068;15.458;2022-07-25T16:43:48;11.70;;;10.90;;
13267;SDS011;6702;47.068;15.458;2022-07-25T16:46:51;11.77;;;10.98;;
13267;SDS011;6702;47.068;15.458;2022-07-25T16:49:54;12.10;;;11.15;;
13267;SDS011;6702;47.068;15.458;2022-07-25T16:52:57;12.65;;;11.70;;
13267;SDS011;6702;47.068;15.458;2022-07-25T16:56:01;11.35;;;10.52;;
13267;SDS011;6702;47.068;15.458;2022-07-25T16:59:05;12.50;;;11.43;;
13267;SDS011;6702;47.068;15.458;2022-07-25T17:02:10;11.73;;;10.73;;
13267;SDS011;6702;47.068;15.458;2022-07-25T17:05:13;11.55;;;10.70;;
13267;SDS011;6702;47.068;15.458;2022-07-25T17:08:17;11.65;;;10.82;;
13267;SDS011;6702;47.068;15.458;2022-07-25T17:11:20;12.10;;;10.95;;
13267;SDS011;6702;47.068;15.458;2022-07-25T17:14:25;12.10;;;11.27;;
13267;SDS011;6702;47.068;15.458;2022-07-25T17:17:30;11.35;;;10.55;;
13267;SDS011;6702;47.068;15.458;2022-07-25T17:20:33;11.45;;;10.65;;
13267;SDS011;6702;47.068;15.458;2022-07-25T17:23:37;12.30;;;11.40;;
13267;SDS011;6702;47.068;15.458;2022-07-25T17:26:40;12.15;;;11.30;;
13267;SDS011;6702;47.068;15.458;2022-07-25T17:29:44;11.50;;;10.70;;
13267;SDS011;6702;47.068;15.458;2022-07-25T17:32:47;13.05;;;12.02;;
13267;SDS011;6702;47.068;15.458;2022-07-25T17:35:51;12.23;;;11.27;;
13267;SDS011;6702;47.068;15.458;2022-07-25T17:38:55;11.68;;;10.80;;
13267;SDS011;6702;47.068;15.458;2022-07-25T17:41:58;11.27;;;10.48;;
13267;SDS011;6702;47.068;15.458;2022-07-25T17:45:03;11.60;;;10.60;;
13267;SDS011;6702;47.068;15.458;2022-07-25T17:48:07;12.20;;;11.20;;
13267;SDS011;6702;47.068;15.458;2022-07-25T17:51:10;12.85;;;11.85;;
13267;SDS011;6702;47.068;15.458;2022-07-25T17:54:13;11.88;;;10.98;;
13267;SDS011;6702;47.068;15.458;2022-07-25T17:57:17;11.82;;;10.95;;